Share

Adiyaman, Turkey

1:07 AM EEST on April 25, 2014 (GMT +0300)
Erhac Air Base (LTAT) Elev 2785 ft | 38.44 °N, 38.09 °E | Change Station

Current weather conditions updated 17 minutes ago

Clear
Clear
55 °F
Feels Like 55 °F
N
4
Wind Variable Wind from WSW
Sunrise 5:38 AM
Sunset 7:11 PM
Moon Waning Crescent

Today is forecast to be Cooler than yesterday. Showers late tonight.

Pressure 29.95 in
Visibility -9999.0 miles
Clouds
Dew Point 45 °F
Humidity 67%
Rainfall 0.00 in
Snow Depth Not available.
UV Not available.
Pollen Not available.
Air Quality Not available.
Flu Activity Not available.
METAR LTAT 242150Z 25003KT CAVOK 13/07 Q1014 NOSIG

More Conditions Fewer Conditions

Pressure 29.95 in
Visibility -9999.0 miles
Clouds
Dew Point 45 °F
Humidity 67%
Rainfall 0.00 in
Snow Depth Not available.
UV Not available.
Pollen Not available.
Air Quality Not available.
Flu Activity Not available.
METAR LTAT 242150Z 25003KT CAVOK 13/07 Q1014 NOSIG

More Conditions Fewer Conditions

10-Day Weather Forecast

Almanac

Astronomy

Apr. 25, 2014 Rise Set
Actual Time 5:38 AM EEST 7:11 PM EEST
Civil Twilight 5:11 AM EEST 7:39 PM EEST
Nautical Twilight 4:37 AM EEST 8:12 PM EEST
Astronomical Twilight 4:02 AM EEST 8:48 PM EEST
Moon 3:09 AM EEST (4/25) 3:14 PM EEST (4/25)
Length of Visible Light 14h 28m
Length of Day
13h 32m
Tomorrow will be 2m 10s longer.
Waning Crescent, 22% of the Moon is Illuminated
Apr 24
Waning Crescent
Apr 29
New
May 6
First Quarter
May 14
Full
May 21
Last Quarter

Yesterday's Extremes

Country Highs Country Lows

Community

  • Jone Runs Falls
    Jone Runs Falls
  • Sunset at Apalachicola Bay, Florida
    Sunset at Apalachicola Bay, Florida
  • Clouds mov'n in
    Clouds mov'n in
  • Stacked
    Stacked
  • clouds approaching Red Sox Nation
    clouds approaching Red Sox Nation

WunderPhotos

Upload Photos

1,704,727 photos uploaded!

Nearby

Snow Depth

Not available.

Coastal Water Temperatures

Place Temperature
No Stations Reporting

Earthquake Activity

City Distance Mag. Time & Date
No recent earthquake activity has been reported nearby.
Minimum magnitude displayed is 2.5.

Nearby Weather Stations

There are no personal weather stations in this area.

What do you think?

We're not finished. Please let us know what you like, what you don't like, and what you are still missing.